createdAt,value
2019-03-15T00:01:48.734Z,8.57
2019-03-15T00:04:16.996Z,9.30
2019-03-15T00:06:45.286Z,7.23
2019-03-15T00:09:13.561Z,11.73
2019-03-15T00:11:41.845Z,12.40
2019-03-15T00:14:10.118Z,7.67
2019-03-15T00:16:38.396Z,7.17
2019-03-15T00:19:06.674Z,8.70
2019-03-15T00:21:35.041Z,8.57
2019-03-15T00:24:03.367Z,9.03
2019-03-15T00:26:31.696Z,8.53
2019-03-15T00:29:01.157Z,6.90
2019-03-15T00:31:29.414Z,7.03
2019-03-15T00:33:57.683Z,5.43
2019-03-15T00:36:29.306Z,3.87
2019-03-15T00:39:00.117Z,4.73
2019-03-15T00:41:28.431Z,8.27
2019-03-15T00:43:57.142Z,7.87
2019-03-15T00:46:25.602Z,5.50
2019-03-15T00:48:58.662Z,4.80
2019-03-15T00:51:26.936Z,9.20
2019-03-15T00:53:55.237Z,7.90
2019-03-15T00:56:23.588Z,8.10
2019-03-15T00:58:51.858Z,9.43
2019-03-15T01:01:20.503Z,6.67
2019-03-15T01:03:48.957Z,5.70
2019-03-15T01:06:17.240Z,4.83
2019-03-15T01:08:45.517Z,7.83
2019-03-15T01:11:13.926Z,7.83
2019-03-15T01:13:43.889Z,7.53
2019-03-15T01:16:12.166Z,8.83
2019-03-15T01:18:40.435Z,4.73
2019-03-15T01:21:08.711Z,6.30
2019-03-15T01:23:36.993Z,5.23
2019-03-15T01:26:05.282Z,4.33
2019-03-15T01:28:33.818Z,4.73
2019-03-15T01:31:02.235Z,4.70
2019-03-15T01:33:30.506Z,3.13
2019-03-15T01:35:58.894Z,5.17
2019-03-15T01:38:27.165Z,4.23
2019-03-15T01:40:55.516Z,8.70
2019-03-15T01:43:23.788Z,10.03
2019-03-15T01:45:52.125Z,5.03
2019-03-15T01:48:20.492Z,2.80
2019-03-15T01:50:48.888Z,11.07
2019-03-15T01:53:17.298Z,6.00
2019-03-15T01:55:45.559Z,7.47
2019-03-15T01:58:13.855Z,4.80
2019-03-15T02:00:42.170Z,5.77
2019-03-15T02:03:10.459Z,5.07
2019-03-15T02:05:38.715Z,5.03
2019-03-15T02:08:06.993Z,4.33
2019-03-15T02:10:35.251Z,4.07
2019-03-15T02:13:03.514Z,7.23
2019-03-15T02:15:31.787Z,6.30
2019-03-15T02:18:00.136Z,8.63
2019-03-15T02:20:28.389Z,5.00
2019-03-15T02:22:56.664Z,10.67
2019-03-15T02:25:24.931Z,3.83
2019-03-15T02:27:53.206Z,3.70
2019-03-15T02:30:21.544Z,3.27
2019-03-15T02:32:49.811Z,4.03
2019-03-15T02:35:18.194Z,5.13
2019-03-15T02:37:46.554Z,2.77
2019-03-15T02:40:15.124Z,7.10
2019-03-15T02:42:43.624Z,9.33
2019-03-15T02:45:11.930Z,10.37
2019-03-15T02:47:40.220Z,4.67
2019-03-15T02:50:08.853Z,8.83
2019-03-15T02:52:37.239Z,9.80
2019-03-15T02:55:06.715Z,9.33
2019-03-15T02:57:35.717Z,8.40
2019-03-15T03:00:06.261Z,3.07
2019-03-15T03:02:34.653Z,4.63
2019-03-15T03:05:03.953Z,3.80
2019-03-15T03:07:32.224Z,7.97
2019-03-15T03:10:01.932Z,5.60
2019-03-15T03:12:30.751Z,8.53
2019-03-15T03:14:59.169Z,8.93
2019-03-15T03:17:27.614Z,9.83
2019-03-15T03:19:55.947Z,7.30
2019-03-15T03:22:24.224Z,10.10
2019-03-15T03:24:52.607Z,6.13
2019-03-15T03:27:20.968Z,8.17
2019-03-15T03:29:49.279Z,4.93
2019-03-15T03:32:17.565Z,8.90
2019-03-15T03:34:45.947Z,6.17
2019-03-15T03:37:14.272Z,4.47
2019-03-15T03:39:42.603Z,6.80
2019-03-15T03:42:10.998Z,10.77
2019-03-15T03:44:39.347Z,13.93
2019-03-15T03:47:07.636Z,11.03
2019-03-15T03:49:35.928Z,7.43
2019-03-15T03:52:04.194Z,4.50
2019-03-15T03:54:32.483Z,11.43
2019-03-15T03:57:00.745Z,6.37
2019-03-15T03:59:29.011Z,7.43
2019-03-15T04:01:57.295Z,6.93
2019-03-15T04:04:25.714Z,8.03
2019-03-15T04:06:53.971Z,6.20
2019-03-15T04:09:22.221Z,6.97
2019-03-15T04:11:55.710Z,5.03
2019-03-15T04:14:20.481Z,6.97
2019-03-15T04:16:48.831Z,5.20
2019-03-15T04:19:17.102Z,2.60
2019-03-15T04:21:45.386Z,10.37
2019-03-15T04:24:13.724Z,3.23
2019-03-15T04:26:42.179Z,4.70
2019-03-15T04:29:10.453Z,7.13
2019-03-15T04:31:38.725Z,7.90
2019-03-15T04:34:06.989Z,6.37
2019-03-15T04:36:35.328Z,7.90
2019-03-15T04:39:04.951Z,5.63
2019-03-15T04:41:33.237Z,5.07
2019-03-15T04:44:01.556Z,8.00
2019-03-15T04:46:29.826Z,4.53
2019-03-15T04:48:58.102Z,11.40
2019-03-15T04:51:26.473Z,6.10
2019-03-15T04:53:54.770Z,6.47
2019-03-15T04:56:23.086Z,8.87
2019-03-15T04:58:51.359Z,16.03
2019-03-15T05:01:19.641Z,8.67
2019-03-15T05:03:47.955Z,9.27
2019-03-15T05:06:16.223Z,5.97
2019-03-15T05:08:44.510Z,14.73
2019-03-15T05:11:12.780Z,11.70
2019-03-15T05:13:41.035Z,14.50
2019-03-15T05:16:09.330Z,17.23
2019-03-15T05:18:37.588Z,16.00
2019-03-15T05:21:05.970Z,9.13
2019-03-15T05:23:34.332Z,14.43
2019-03-15T05:26:02.717Z,7.03
2019-03-15T05:28:31.043Z,19.40
2019-03-15T05:30:59.310Z,10.67
2019-03-15T05:33:27.572Z,16.87
2019-03-15T05:35:55.856Z,12.30
2019-03-15T05:38:24.183Z,12.77
2019-03-15T05:40:53.124Z,13.83
2019-03-15T05:43:21.372Z,14.40
2019-03-15T05:45:49.687Z,11.77
2019-03-15T05:48:18.011Z,12.00
2019-03-15T05:50:46.296Z,12.73
2019-03-15T05:53:14.553Z,11.20
2019-03-15T05:55:42.831Z,14.97
2019-03-15T05:58:11.106Z,13.23
2019-03-15T06:00:39.372Z,22.47
2019-03-15T06:03:07.630Z,15.30
2019-03-15T06:05:35.965Z,20.30
2019-03-15T06:08:04.256Z,21.13
2019-03-15T06:10:32.536Z,17.93
2019-03-15T06:13:00.866Z,24.13
2019-03-15T06:15:29.134Z,20.10
2019-03-15T06:17:57.411Z,18.77
2019-03-15T06:20:25.719Z,20.17
2019-03-15T06:22:54.003Z,21.83
2019-03-15T06:25:22.446Z,19.00
2019-03-15T06:27:50.816Z,24.20
2019-03-15T06:30:19.097Z,21.80
2019-03-15T06:32:47.390Z,21.97
2019-03-15T06:35:15.670Z,22.97
2019-03-15T06:37:44.094Z,28.60
2019-03-15T06:40:13.845Z,19.60
2019-03-15T06:42:42.443Z,25.40
2019-03-15T06:45:12.465Z,27.40
2019-03-15T06:47:40.809Z,29.10
2019-03-15T06:50:09.121Z,30.77
2019-03-15T06:52:37.421Z,33.13
2019-03-15T06:55:07.704Z,24.17
2019-03-15T06:57:36.132Z,34.90
2019-03-15T07:00:07.379Z,23.40
2019-03-15T07:02:35.712Z,35.87
2019-03-15T07:05:05.198Z,23.57
2019-03-15T07:07:33.544Z,23.47
2019-03-15T07:10:01.864Z,22.57
2019-03-15T07:12:30.194Z,27.90
2019-03-15T07:14:58.497Z,26.83
2019-03-15T07:17:26.838Z,30.27
2019-03-15T07:19:55.176Z,25.73
2019-03-15T07:22:24.436Z,34.47
2019-03-15T07:24:52.700Z,27.73
2019-03-15T07:27:21.948Z,20.70
2019-03-15T07:29:50.321Z,23.73
2019-03-15T07:32:18.612Z,28.53
2019-03-15T07:34:46.973Z,28.10
2019-03-15T07:37:15.249Z,28.53
2019-03-15T07:39:43.598Z,26.63
2019-03-15T07:42:11.856Z,23.80
2019-03-15T07:44:40.122Z,25.47
2019-03-15T07:47:08.447Z,22.83
2019-03-15T07:49:36.722Z,26.37
2019-03-15T07:52:04.998Z,30.03
2019-03-15T07:54:37.876Z,21.97
2019-03-15T07:57:03.248Z,19.13
2019-03-15T07:59:31.519Z,32.63
2019-03-15T08:01:59.794Z,26.83
2019-03-15T08:04:29.247Z,22.83
2019-03-15T08:06:57.697Z,26.73
2019-03-15T08:09:26.033Z,26.67
2019-03-15T08:11:54.283Z,27.83
2019-03-15T08:14:22.554Z,32.20
2019-03-15T08:16:50.834Z,24.03
2019-03-15T08:19:19.201Z,34.73
2019-03-15T08:21:47.564Z,40.30
2019-03-15T08:24:15.812Z,32.73
2019-03-15T08:26:44.094Z,35.33
2019-03-15T08:29:12.362Z,28.90
2019-03-15T08:31:40.668Z,30.73
2019-03-15T08:34:14.070Z,33.03
2019-03-15T08:36:42.324Z,30.63
2019-03-15T08:39:10.645Z,42.80
2019-03-15T08:41:39.109Z,30.70
2019-03-15T08:44:07.453Z,37.50
2019-03-15T08:46:35.786Z,30.13
2019-03-15T08:49:04.054Z,27.87
2019-03-15T08:51:32.327Z,32.23
2019-03-15T08:54:00.595Z,29.57
2019-03-15T08:56:28.864Z,30.83
2019-03-15T08:58:57.188Z,31.33
2019-03-15T09:01:25.486Z,25.63
2019-03-15T09:03:53.813Z,28.30
2019-03-15T09:06:22.084Z,30.57
2019-03-15T09:08:50.385Z,24.73
2019-03-15T09:11:18.671Z,28.53
2019-03-15T09:13:49.139Z,25.27
2019-03-15T09:16:16.926Z,25.13
2019-03-15T09:18:45.185Z,21.17
2019-03-15T09:21:13.485Z,24.13
2019-03-15T09:23:41.764Z,28.93
2019-03-15T09:26:10.561Z,31.23
2019-03-15T09:28:39.071Z,20.17
2019-03-15T09:31:07.701Z,31.07
2019-03-15T09:33:36.222Z,26.40
2019-03-15T09:36:04.588Z,22.23
2019-03-15T09:38:32.906Z,28.37
2019-03-15T09:41:01.228Z,28.87
2019-03-15T09:43:29.556Z,25.23
2019-03-15T09:45:57.892Z,29.43
2019-03-15T09:48:26.158Z,26.80
2019-03-15T09:50:54.419Z,29.40
2019-03-15T09:53:22.695Z,27.13
2019-03-15T09:55:50.966Z,19.30
2019-03-15T09:58:19.245Z,20.53
2019-03-15T10:00:47.602Z,19.83
2019-03-15T10:03:22.054Z,21.70
2019-03-15T10:05:45.863Z,23.57
2019-03-15T10:08:14.172Z,20.90
2019-03-15T10:10:42.459Z,19.53
2019-03-15T10:13:10.734Z,20.87
2019-03-15T10:15:39.052Z,20.97
2019-03-15T10:18:07.570Z,16.57
2019-03-15T10:20:35.843Z,18.20
2019-03-15T10:23:06.251Z,22.37
2019-03-15T10:25:46.097Z,18.57
2019-03-15T10:28:05.885Z,25.90
2019-03-15T10:30:34.163Z,23.30
2019-03-15T10:33:02.541Z,17.00
2019-03-15T10:35:31.052Z,19.43
2019-03-15T10:37:59.340Z,19.67
2019-03-15T10:40:27.607Z,22.50
2019-03-15T10:42:55.993Z,22.27
2019-03-15T10:45:24.335Z,18.57
2019-03-15T10:47:52.812Z,23.03
2019-03-15T10:50:21.117Z,14.27
2019-03-15T10:52:49.390Z,16.83
2019-03-15T10:55:20.496Z,19.90
2019-03-15T10:57:47.695Z,16.33
2019-03-15T11:00:17.751Z,22.43
2019-03-15T11:02:46.026Z,20.30
2019-03-15T11:05:14.309Z,18.87
2019-03-15T11:07:42.589Z,22.97
2019-03-15T11:10:11.700Z,22.67
2019-03-15T11:12:40.086Z,17.50
2019-03-15T11:15:15.107Z,24.57
2019-03-15T11:17:43.487Z,24.73
2019-03-15T11:20:12.420Z,27.13
2019-03-15T11:22:40.691Z,23.70
2019-03-15T11:25:10.006Z,21.43
2019-03-15T11:27:38.300Z,14.87
2019-03-15T11:30:09.283Z,14.17
2019-03-15T11:32:37.617Z,20.97
2019-03-15T11:35:07.743Z,16.50
2019-03-15T11:37:35.991Z,20.03
2019-03-15T11:40:07.551Z,12.03
2019-03-15T11:42:35.816Z,18.33
2019-03-15T11:45:04.703Z,24.50
2019-03-15T11:47:46.341Z,18.17
2019-03-15T11:50:03.714Z,23.97
2019-03-15T11:52:31.974Z,25.07
2019-03-15T11:55:00.465Z,20.73
2019-03-15T11:57:28.887Z,21.47
2019-03-15T11:59:57.255Z,21.97
2019-03-15T12:02:25.615Z,21.33
2019-03-15T12:04:53.870Z,18.60
2019-03-15T12:07:22.177Z,21.63
2019-03-15T12:09:50.521Z,18.10
2019-03-15T12:12:21.530Z,21.27
2019-03-15T12:14:48.799Z,23.17
2019-03-15T12:17:17.081Z,23.77
2019-03-15T12:19:45.417Z,21.87
2019-03-15T12:22:13.702Z,19.97
2019-03-15T12:24:41.986Z,23.07
2019-03-15T12:27:10.285Z,23.60
2019-03-15T12:29:38.658Z,19.00
2019-03-15T12:32:07.079Z,29.10
2019-03-15T12:34:35.359Z,18.40
2019-03-15T12:37:03.667Z,19.57
2019-03-15T12:39:31.942Z,23.43
2019-03-15T12:42:00.253Z,22.57
2019-03-15T12:44:28.539Z,19.40
2019-03-15T12:46:56.851Z,16.30
2019-03-15T12:49:25.747Z,18.40
2019-03-15T12:51:54.308Z,18.33
2019-03-15T12:54:22.670Z,12.80
2019-03-15T12:56:53.955Z,22.97
2019-03-15T12:59:21.062Z,23.03
2019-03-15T13:01:49.339Z,12.20
2019-03-15T13:04:17.615Z,13.50
2019-03-15T13:06:46.710Z,13.70
2019-03-15T13:09:14.985Z,11.00
2019-03-15T13:11:43.261Z,11.03
2019-03-15T13:14:11.535Z,9.00
2019-03-15T13:16:39.798Z,9.20
2019-03-15T13:19:08.101Z,5.87
2019-03-15T13:21:36.429Z,6.80
2019-03-15T13:24:04.760Z,6.47
2019-03-15T13:26:33.078Z,6.37
2019-03-15T13:29:01.597Z,6.83
2019-03-15T13:31:29.885Z,4.87
2019-03-15T13:33:58.210Z,4.10
2019-03-15T13:36:26.554Z,5.47
2019-03-15T13:38:54.839Z,4.77
2019-03-15T13:41:23.134Z,4.13
2019-03-15T13:43:54.671Z,5.60
2019-03-15T13:46:23.049Z,5.13
2019-03-15T13:48:51.371Z,7.70
2019-03-15T13:51:22.517Z,7.80
2019-03-15T13:53:50.834Z,5.80
2019-03-15T13:56:19.468Z,9.63
2019-03-15T13:58:57.233Z,8.90
2019-03-15T14:01:17.956Z,8.23
2019-03-15T14:03:46.219Z,12.40
2019-03-15T14:06:14.711Z,14.13
2019-03-15T14:08:43.034Z,14.90
2019-03-15T14:11:11.334Z,17.23
2019-03-15T14:13:39.599Z,19.47
2019-03-15T14:16:07.881Z,18.10
2019-03-15T14:18:36.190Z,18.83
2019-03-15T14:21:04.454Z,15.57
2019-03-15T14:23:32.774Z,21.50
2019-03-15T14:26:01.143Z,20.87
2019-03-15T14:28:29.424Z,22.07
2019-03-15T14:30:57.861Z,28.17
2019-03-15T14:33:26.368Z,21.43
2019-03-15T14:35:54.955Z,20.77
2019-03-15T14:38:23.411Z,24.23
2019-03-15T14:40:51.853Z,21.73
2019-03-15T14:43:20.470Z,19.60
2019-03-15T14:45:48.928Z,16.47
2019-03-15T14:48:17.405Z,22.80
2019-03-15T14:50:45.687Z,15.63
2019-03-15T14:53:14.023Z,18.90
2019-03-15T14:55:42.431Z,19.07
2019-03-15T14:58:10.714Z,16.00
2019-03-15T15:00:39.022Z,19.07
2019-03-15T15:03:07.342Z,17.33
2019-03-15T15:05:35.879Z,23.80
2019-03-15T15:08:04.165Z,23.70
2019-03-15T15:10:32.440Z,21.27
2019-03-15T15:13:00.802Z,27.30
2019-03-15T15:15:29.091Z,21.77
2019-03-15T15:17:57.416Z,19.00
2019-03-15T15:20:25.762Z,17.57
2019-03-15T15:22:54.220Z,21.83
2019-03-15T15:25:22.507Z,21.30
2019-03-15T15:31:32.277Z,27.10
2019-03-15T15:36:30.088Z,15.13
2019-03-15T15:38:58.369Z,19.70
2019-03-15T15:41:26.647Z,24.70
2019-03-15T15:43:55.097Z,16.90
2019-03-15T15:46:23.463Z,22.23
2019-03-15T15:48:51.988Z,18.90
2019-03-15T15:51:20.606Z,22.00
2019-03-15T15:53:49.006Z,20.63
2019-03-15T15:56:17.353Z,23.20
2019-03-15T15:58:45.615Z,22.03
2019-03-15T16:01:13.903Z,21.03
2019-03-15T16:03:42.306Z,18.90
2019-03-15T16:06:10.798Z,19.67
2019-03-15T16:08:39.137Z,23.80
2019-03-15T16:11:07.413Z,15.07
2019-03-15T16:13:35.831Z,19.17
2019-03-15T16:16:04.349Z,20.93
2019-03-15T16:18:32.728Z,20.90
2019-03-15T16:21:01.106Z,21.20
2019-03-15T16:23:30.482Z,25.50
2019-03-15T16:25:59.456Z,20.47
2019-03-15T16:28:32.344Z,16.70
2019-03-15T16:30:58.105Z,15.03
2019-03-15T16:33:26.440Z,19.80
2019-03-15T16:35:54.747Z,25.90
2019-03-15T16:38:23.362Z,19.60
2019-03-15T16:40:52.354Z,17.43
2019-03-15T16:43:20.799Z,27.23
2019-03-15T16:45:49.264Z,20.43
2019-03-15T16:48:17.776Z,18.53
2019-03-15T16:50:46.084Z,20.33
2019-03-15T16:53:18.514Z,25.23
2019-03-15T16:55:47.094Z,21.60
2019-03-15T16:58:15.460Z,18.13
2019-03-15T17:00:43.853Z,22.63
2019-03-15T17:03:12.262Z,24.40
2019-03-15T17:05:40.757Z,20.70
2019-03-15T17:08:09.198Z,20.30
2019-03-15T17:10:37.539Z,21.47
2019-03-15T17:13:06.279Z,23.13
2019-03-15T17:15:34.840Z,27.33
2019-03-15T17:18:03.382Z,21.57
2019-03-15T17:20:32.285Z,19.20
2019-03-15T17:23:00.822Z,26.43
2019-03-15T17:25:29.498Z,20.67
2019-03-15T17:27:57.789Z,24.73
2019-03-15T17:30:26.204Z,24.73
2019-03-15T17:32:54.643Z,20.00
2019-03-15T17:35:24.932Z,18.73
2019-03-15T17:37:53.315Z,33.23
2019-03-15T17:40:21.844Z,26.90
2019-03-15T17:42:50.189Z,27.00
2019-03-15T17:45:19.409Z,25.27
2019-03-15T17:47:47.758Z,27.53
2019-03-15T17:50:17.987Z,21.40
2019-03-15T17:52:46.322Z,35.47
2019-03-15T17:55:15.624Z,33.83
2019-03-15T17:57:45.607Z,27.97
2019-03-15T18:00:24.459Z,22.37
2019-03-15T18:02:52.719Z,21.30
2019-03-15T18:05:21.088Z,25.73
2019-03-15T18:07:49.523Z,27.53
2019-03-15T18:10:17.814Z,20.87
2019-03-15T18:12:46.077Z,26.27
2019-03-15T18:15:14.375Z,27.37
2019-03-15T18:17:42.792Z,26.53
2019-03-15T18:20:11.378Z,28.37
2019-03-15T18:22:39.785Z,17.83
2019-03-15T18:25:11.544Z,27.63
2019-03-15T18:27:39.843Z,27.17
2019-03-15T18:30:11.123Z,26.43
2019-03-15T18:32:39.515Z,20.70
2019-03-15T18:35:09.288Z,24.97
2019-03-15T18:37:37.671Z,18.50
2019-03-15T18:40:17.532Z,25.27
2019-03-15T18:42:46.001Z,18.63
2019-03-15T18:51:45.233Z,18.37
2019-03-15T18:54:17.714Z,22.23
2019-03-15T18:56:44.380Z,19.00
2019-03-15T18:59:12.817Z,29.73
2019-03-15T19:01:41.790Z,27.90
2019-03-15T19:04:10.462Z,23.60
2019-03-15T19:06:38.819Z,20.07
2019-03-15T19:09:07.990Z,24.23
2019-03-15T19:11:36.606Z,31.60
2019-03-15T19:14:05.230Z,28.00
2019-03-15T19:16:33.829Z,26.00
2019-03-15T19:19:02.623Z,18.53
2019-03-15T19:21:33.510Z,22.43
2019-03-15T19:24:02.002Z,22.03
2019-03-15T19:26:30.375Z,18.33
2019-03-15T19:28:58.823Z,15.73
2019-03-15T19:31:30.335Z,16.30
2019-03-15T19:34:00.790Z,23.60
2019-03-15T19:36:29.087Z,24.03
2019-03-15T19:38:57.451Z,22.90
2019-03-15T19:41:26.792Z,21.07
2019-03-15T19:44:01.804Z,30.07
2019-03-15T19:46:30.918Z,31.77
2019-03-15T19:48:59.582Z,27.50
2019-03-15T19:51:27.932Z,27.30
2019-03-15T19:54:03.996Z,27.20
2019-03-15T19:56:31.670Z,29.70
2019-03-15T19:59:01.648Z,27.33
2019-03-15T20:01:30.351Z,26.47
2019-03-15T20:03:59.209Z,28.77
2019-03-15T20:06:27.705Z,23.07
2019-03-15T20:08:56.112Z,29.00
2019-03-15T20:11:24.446Z,26.33
2019-03-15T20:13:53.442Z,23.37
2019-03-15T20:16:21.887Z,25.83
2019-03-15T20:18:50.292Z,25.50
2019-03-15T20:21:18.699Z,26.33
2019-03-15T20:23:47.200Z,22.47
2019-03-15T20:26:15.558Z,28.07
2019-03-15T20:28:43.919Z,21.83
2019-03-15T20:31:12.695Z,21.47
2019-03-15T20:33:41.462Z,16.13
2019-03-15T20:36:12.497Z,25.63
2019-03-15T20:38:40.922Z,28.47
2019-03-15T20:41:09.379Z,24.10
2019-03-15T20:43:37.987Z,32.33
2019-03-15T20:46:06.365Z,27.20
2019-03-15T20:48:34.742Z,27.00
2019-03-15T20:51:03.231Z,26.53
2019-03-15T20:53:31.551Z,27.67
2019-03-15T20:55:59.907Z,20.23
2019-03-15T20:58:28.278Z,38.63
2019-03-15T21:00:59.842Z,31.53
2019-03-15T21:03:28.264Z,29.43
2019-03-15T21:05:56.899Z,31.70
2019-03-15T21:08:25.526Z,31.60
2019-03-15T21:11:05.877Z,28.37
2019-03-15T21:13:34.383Z,30.43
2019-03-15T21:16:03.662Z,22.77
2019-03-15T21:18:32.278Z,24.60
2019-03-15T21:21:00.629Z,28.37
2019-03-15T21:23:29.035Z,26.97
2019-03-15T21:25:57.435Z,21.83
2019-03-15T21:28:25.780Z,33.27
2019-03-15T21:30:54.368Z,24.43
2019-03-15T21:33:22.824Z,27.77
2019-03-15T21:35:54.309Z,26.33
2019-03-15T21:38:22.608Z,23.33
2019-03-15T21:40:50.965Z,24.70
2019-03-15T21:43:19.301Z,27.33
2019-03-15T21:45:48.000Z,30.93
2019-03-15T21:48:16.427Z,22.30
2019-03-15T21:50:44.778Z,25.73
2019-03-15T21:53:13.038Z,24.10
2019-03-15T21:55:41.311Z,22.80
2019-03-15T21:58:09.666Z,27.07
2019-03-15T22:00:38.283Z,22.43
2019-03-15T22:03:06.692Z,24.00
2019-03-15T22:05:35.089Z,37.60
2019-03-15T22:08:03.471Z,26.67
2019-03-15T22:10:32.100Z,21.60
2019-03-15T22:13:00.454Z,22.43
2019-03-15T22:15:28.953Z,26.23
2019-03-15T22:18:03.246Z,32.73
2019-03-15T22:20:31.806Z,25.63
2019-03-15T22:23:00.126Z,27.70
2019-03-15T22:25:28.518Z,21.60
2019-03-15T22:27:56.837Z,33.27
2019-03-15T22:30:26.287Z,34.07
2019-03-15T22:32:54.731Z,25.93
2019-03-15T22:35:22.989Z,26.03
2019-03-15T22:37:51.337Z,30.50
2019-03-15T22:40:19.663Z,18.93
2019-03-15T22:42:48.027Z,30.53
2019-03-15T22:45:16.487Z,28.50
2019-03-15T22:47:44.852Z,23.27
2019-03-15T22:50:14.514Z,31.30
2019-03-15T22:52:43.071Z,22.40
2019-03-15T22:55:11.415Z,23.90
2019-03-15T22:57:39.752Z,24.10
2019-03-15T23:00:18.125Z,29.73
2019-03-15T23:02:46.496Z,28.07
2019-03-15T23:05:14.894Z,31.40
2019-03-15T23:07:43.458Z,19.10
2019-03-15T23:10:17.873Z,30.20
2019-03-15T23:12:46.247Z,26.27
2019-03-15T23:15:14.726Z,28.70
2019-03-15T23:17:43.052Z,34.53
2019-03-15T23:20:12.531Z,24.13
2019-03-15T23:22:41.148Z,23.30
2019-03-15T23:25:09.499Z,35.17
2019-03-15T23:27:37.851Z,28.63
2019-03-15T23:30:15.831Z,30.50
2019-03-15T23:32:44.180Z,29.40
2019-03-15T23:35:12.448Z,31.33
2019-03-15T23:37:40.723Z,26.93
2019-03-15T23:40:13.472Z,27.97
2019-03-15T23:42:42.256Z,28.40
2019-03-15T23:45:11.018Z,34.43
2019-03-15T23:47:39.431Z,31.10
2019-03-15T23:50:10.369Z,37.57
2019-03-15T23:52:38.650Z,31.03
2019-03-15T23:55:06.936Z,33.37
2019-03-15T23:57:35.219Z,28.13
